sensor_id;sensor_type;location;lat;lon;timestamp;P1;durP1;ratioP1;P2;durP2;ratioP2
48703;SDS011;34502;51.296;16.918;2022-11-21T00:00:38;98.80;;;51.22;;
48703;SDS011;34502;51.296;16.918;2022-11-21T00:03:05;94.32;;;47.58;;
48703;SDS011;34502;51.296;16.918;2022-11-21T00:05:31;93.80;;;48.38;;
48703;SDS011;34502;51.296;16.918;2022-11-21T00:07:58;92.75;;;46.08;;
48703;SDS011;34502;51.296;16.918;2022-11-21T00:10:24;85.45;;;44.10;;
48703;SDS011;34502;51.296;16.918;2022-11-21T00:12:54;102.43;;;49.15;;
48703;SDS011;34502;51.296;16.918;2022-11-21T00:15:20;109.65;;;57.20;;
48703;SDS011;34502;51.296;16.918;2022-11-21T00:17:47;106.70;;;53.08;;
48703;SDS011;34502;51.296;16.918;2022-11-21T00:20:14;108.47;;;51.42;;
48703;SDS011;34502;51.296;16.918;2022-11-21T00:22:40;118.35;;;54.35;;
48703;SDS011;34502;51.296;16.918;2022-11-21T00:25:06;111.30;;;54.00;;
48703;SDS011;34502;51.296;16.918;2022-11-21T00:27:33;109.28;;;53.13;;
48703;SDS011;34502;51.296;16.918;2022-11-21T00:29:59;118.85;;;55.85;;
48703;SDS011;34502;51.296;16.918;2022-11-21T00:32:25;99.93;;;48.90;;
48703;SDS011;34502;51.296;16.918;2022-11-21T00:34:51;97.22;;;51.13;;
48703;SDS011;34502;51.296;16.918;2022-11-21T00:37:17;105.40;;;53.28;;
48703;SDS011;34502;51.296;16.918;2022-11-21T00:39:43;97.10;;;48.58;;
48703;SDS011;34502;51.296;16.918;2022-11-21T00:42:09;98.32;;;48.40;;
48703;SDS011;34502;51.296;16.918;2022-11-21T00:44:35;127.28;;;59.63;;
48703;SDS011;34502;51.296;16.918;2022-11-21T00:47:02;122.78;;;57.85;;
48703;SDS011;34502;51.296;16.918;2022-11-21T00:49:28;123.50;;;57.67;;
48703;SDS011;34502;51.296;16.918;2022-11-21T00:51:54;115.70;;;54.30;;
48703;SDS011;34502;51.296;16.918;2022-11-21T00:54:20;109.05;;;52.55;;
48703;SDS011;34502;51.296;16.918;2022-11-21T00:56:46;108.95;;;52.20;;
48703;SDS011;34502;51.296;16.918;2022-11-21T00:59:12;104.10;;;51.65;;
48703;SDS011;34502;51.296;16.918;2022-11-21T01:01:39;106.35;;;52.10;;
48703;SDS011;34502;51.296;16.918;2022-11-21T01:04:05;100.55;;;49.03;;
48703;SDS011;34502;51.296;16.918;2022-11-21T01:06:31;112.93;;;56.85;;
48703;SDS011;34502;51.296;16.918;2022-11-21T01:08:57;108.97;;;54.65;;
48703;SDS011;34502;51.296;16.918;2022-11-21T01:11:23;106.50;;;51.72;;
48703;SDS011;34502;51.296;16.918;2022-11-21T01:13:51;94.60;;;49.78;;
48703;SDS011;34502;51.296;16.918;2022-11-21T01:16:19;95.13;;;46.45;;
48703;SDS011;34502;51.296;16.918;2022-11-21T01:18:46;106.30;;;51.83;;
48703;SDS011;34502;51.296;16.918;2022-11-21T01:21:16;102.68;;;51.20;;
48703;SDS011;34502;51.296;16.918;2022-11-21T01:23:44;103.60;;;53.17;;
48703;SDS011;34502;51.296;16.918;2022-11-21T01:26:12;111.28;;;55.45;;
48703;SDS011;34502;51.296;16.918;2022-11-21T01:28:39;115.28;;;59.05;;
48703;SDS011;34502;51.296;16.918;2022-11-21T01:31:07;113.75;;;58.33;;
48703;SDS011;34502;51.296;16.918;2022-11-21T01:33:35;101.68;;;54.58;;
48703;SDS011;34502;51.296;16.918;2022-11-21T01:38:42;87.45;;;47.50;;
48703;SDS011;34502;51.296;16.918;2022-11-21T01:41:10;82.95;;;44.20;;
48703;SDS011;34502;51.296;16.918;2022-11-21T01:43:38;88.25;;;43.20;;
48703;SDS011;34502;51.296;16.918;2022-11-21T01:46:09;78.82;;;40.53;;
48703;SDS011;34502;51.296;16.918;2022-11-21T01:48:51;84.30;;;41.63;;
48703;SDS011;34502;51.296;16.918;2022-11-21T01:51:42;82.38;;;40.80;;
48703;SDS011;34502;51.296;16.918;2022-11-21T01:56:55;76.10;;;41.50;;
48703;SDS011;34502;51.296;16.918;2022-11-21T02:02:06;80.00;;;37.30;;
48703;SDS011;34502;51.296;16.918;2022-11-21T02:04:33;75.85;;;36.70;;
48703;SDS011;34502;51.296;16.918;2022-11-21T02:07:00;80.65;;;38.28;;
48703;SDS011;34502;51.296;16.918;2022-11-21T02:09:28;80.00;;;37.42;;
48703;SDS011;34502;51.296;16.918;2022-11-21T02:12:07;73.07;;;38.38;;
48703;SDS011;34502;51.296;16.918;2022-11-21T02:14:36;75.88;;;35.58;;
48703;SDS011;34502;51.296;16.918;2022-11-21T02:17:03;67.25;;;35.15;;
48703;SDS011;34502;51.296;16.918;2022-11-21T02:22:18;71.57;;;37.10;;
48703;SDS011;34502;51.296;16.918;2022-11-21T02:27:39;68.30;;;37.00;;
48703;SDS011;34502;51.296;16.918;2022-11-21T02:30:06;75.07;;;34.72;;
48703;SDS011;34502;51.296;16.918;2022-11-21T02:32:38;66.60;;;34.85;;
48703;SDS011;34502;51.296;16.918;2022-11-21T02:35:05;65.07;;;34.77;;
48703;SDS011;34502;51.296;16.918;2022-11-21T02:37:32;71.70;;;35.22;;
48703;SDS011;34502;51.296;16.918;2022-11-21T02:40:01;74.25;;;37.33;;
48703;SDS011;34502;51.296;16.918;2022-11-21T02:42:38;74.03;;;39.13;;
48703;SDS011;34502;51.296;16.918;2022-11-21T02:45:29;76.97;;;38.58;;
48703;SDS011;34502;51.296;16.918;2022-11-21T02:47:57;73.53;;;37.42;;
48703;SDS011;34502;51.296;16.918;2022-11-21T02:50:27;75.07;;;37.30;;
48703;SDS011;34502;51.296;16.918;2022-11-21T02:52:55;76.47;;;37.10;;
48703;SDS011;34502;51.296;16.918;2022-11-21T02:55:22;66.80;;;34.95;;
48703;SDS011;34502;51.296;16.918;2022-11-21T02:57:48;73.28;;;36.70;;
48703;SDS011;34502;51.296;16.918;2022-11-21T03:00:15;66.00;;;36.42;;
48703;SDS011;34502;51.296;16.918;2022-11-21T03:02:41;69.57;;;35.80;;
48703;SDS011;34502;51.296;16.918;2022-11-21T03:05:08;60.70;;;33.97;;
48703;SDS011;34502;51.296;16.918;2022-11-21T03:07:37;61.55;;;32.13;;
48703;SDS011;34502;51.296;16.918;2022-11-21T03:10:03;58.15;;;30.58;;
48703;SDS011;34502;51.296;16.918;2022-11-21T03:12:30;64.05;;;31.88;;
48703;SDS011;34502;51.296;16.918;2022-11-21T03:14:56;64.55;;;32.33;;
48703;SDS011;34502;51.296;16.918;2022-11-21T03:17:22;63.15;;;33.35;;
48703;SDS011;34502;51.296;16.918;2022-11-21T03:19:48;62.10;;;31.00;;
48703;SDS011;34502;51.296;16.918;2022-11-21T03:22:14;66.80;;;32.90;;
48703;SDS011;34502;51.296;16.918;2022-11-21T03:24:40;61.95;;;32.10;;
48703;SDS011;34502;51.296;16.918;2022-11-21T03:27:06;62.70;;;31.65;;
48703;SDS011;34502;51.296;16.918;2022-11-21T03:29:33;60.00;;;30.85;;
48703;SDS011;34502;51.296;16.918;2022-11-21T03:31:59;60.65;;;32.08;;
48703;SDS011;34502;51.296;16.918;2022-11-21T03:34:25;55.63;;;29.98;;
48703;SDS011;34502;51.296;16.918;2022-11-21T03:36:51;56.88;;;30.30;;
48703;SDS011;34502;51.296;16.918;2022-11-21T03:39:17;53.80;;;29.20;;
48703;SDS011;34502;51.296;16.918;2022-11-21T03:41:43;54.63;;;29.33;;
48703;SDS011;34502;51.296;16.918;2022-11-21T03:44:10;47.90;;;27.55;;
48703;SDS011;34502;51.296;16.918;2022-11-21T03:46:37;48.85;;;27.42;;
48703;SDS011;34502;51.296;16.918;2022-11-21T03:49:04;49.53;;;27.60;;
48703;SDS011;34502;51.296;16.918;2022-11-21T03:51:31;50.88;;;27.77;;
48703;SDS011;34502;51.296;16.918;2022-11-21T03:53:57;48.33;;;26.95;;
48703;SDS011;34502;51.296;16.918;2022-11-21T03:56:24;54.90;;;27.58;;
48703;SDS011;34502;51.296;16.918;2022-11-21T03:58:50;50.15;;;27.67;;
48703;SDS011;34502;51.296;16.918;2022-11-21T04:01:16;47.88;;;27.27;;
48703;SDS011;34502;51.296;16.918;2022-11-21T04:03:43;48.78;;;27.10;;
48703;SDS011;34502;51.296;16.918;2022-11-21T04:06:10;55.08;;;29.58;;
48703;SDS011;34502;51.296;16.918;2022-11-21T04:08:37;52.58;;;27.85;;
48703;SDS011;34502;51.296;16.918;2022-11-21T04:11:04;48.67;;;27.33;;
48703;SDS011;34502;51.296;16.918;2022-11-21T04:13:30;49.95;;;26.88;;
48703;SDS011;34502;51.296;16.918;2022-11-21T04:15:56;48.42;;;26.77;;
48703;SDS011;34502;51.296;16.918;2022-11-21T04:18:22;48.70;;;27.40;;
48703;SDS011;34502;51.296;16.918;2022-11-21T04:20:54;54.65;;;28.73;;
48703;SDS011;34502;51.296;16.918;2022-11-21T04:23:24;53.95;;;28.38;;
48703;SDS011;34502;51.296;16.918;2022-11-21T04:25:50;51.83;;;27.52;;
48703;SDS011;34502;51.296;16.918;2022-11-21T04:28:16;50.63;;;27.17;;
48703;SDS011;34502;51.296;16.918;2022-11-21T04:30:43;54.22;;;29.33;;
48703;SDS011;34502;51.296;16.918;2022-11-21T04:33:10;57.25;;;30.27;;
48703;SDS011;34502;51.296;16.918;2022-11-21T04:35:36;52.20;;;29.13;;
48703;SDS011;34502;51.296;16.918;2022-11-21T04:38:02;56.22;;;31.23;;
48703;SDS011;34502;51.296;16.918;2022-11-21T04:40:28;56.70;;;31.10;;
48703;SDS011;34502;51.296;16.918;2022-11-21T04:42:54;58.17;;;31.38;;
48703;SDS011;34502;51.296;16.918;2022-11-21T04:45:20;60.92;;;33.33;;
48703;SDS011;34502;51.296;16.918;2022-11-21T04:47:46;54.45;;;30.15;;
48703;SDS011;34502;51.296;16.918;2022-11-21T04:50:15;61.70;;;32.75;;
48703;SDS011;34502;51.296;16.918;2022-11-21T04:52:42;54.42;;;31.40;;
48703;SDS011;34502;51.296;16.918;2022-11-21T04:55:15;59.45;;;31.48;;
48703;SDS011;34502;51.296;16.918;2022-11-21T04:57:41;61.28;;;32.17;;
48703;SDS011;34502;51.296;16.918;2022-11-21T05:00:07;59.28;;;31.33;;
48703;SDS011;34502;51.296;16.918;2022-11-21T05:02:33;56.10;;;31.13;;
48703;SDS011;34502;51.296;16.918;2022-11-21T05:05:00;57.28;;;30.65;;
48703;SDS011;34502;51.296;16.918;2022-11-21T05:07:26;57.13;;;31.55;;
48703;SDS011;34502;51.296;16.918;2022-11-21T05:09:52;58.83;;;31.45;;
48703;SDS011;34502;51.296;16.918;2022-11-21T05:12:18;58.53;;;32.55;;
48703;SDS011;34502;51.296;16.918;2022-11-21T05:15:03;53.75;;;29.50;;
48703;SDS011;34502;51.296;16.918;2022-11-21T05:17:29;51.38;;;28.77;;
48703;SDS011;34502;51.296;16.918;2022-11-21T05:19:55;53.67;;;28.95;;
48703;SDS011;34502;51.296;16.918;2022-11-21T05:22:21;50.92;;;28.45;;
48703;SDS011;34502;51.296;16.918;2022-11-21T05:24:47;57.00;;;30.48;;
48703;SDS011;34502;51.296;16.918;2022-11-21T05:27:13;55.67;;;30.02;;
48703;SDS011;34502;51.296;16.918;2022-11-21T05:29:40;54.55;;;30.20;;
48703;SDS011;34502;51.296;16.918;2022-11-21T05:32:06;55.75;;;30.10;;
48703;SDS011;34502;51.296;16.918;2022-11-21T05:34:32;56.50;;;29.75;;
48703;SDS011;34502;51.296;16.918;2022-11-21T05:36:58;52.47;;;28.55;;
48703;SDS011;34502;51.296;16.918;2022-11-21T05:39:24;54.33;;;31.38;;
48703;SDS011;34502;51.296;16.918;2022-11-21T05:41:51;55.75;;;31.02;;
48703;SDS011;34502;51.296;16.918;2022-11-21T05:44:17;60.03;;;31.60;;
48703;SDS011;34502;51.296;16.918;2022-11-21T05:46:44;57.72;;;30.42;;
48703;SDS011;34502;51.296;16.918;2022-11-21T05:49:10;54.05;;;31.08;;
48703;SDS011;34502;51.296;16.918;2022-11-21T05:51:36;58.08;;;30.88;;
48703;SDS011;34502;51.296;16.918;2022-11-21T05:54:02;53.40;;;29.52;;
48703;SDS011;34502;51.296;16.918;2022-11-21T05:56:28;55.85;;;29.75;;
48703;SDS011;34502;51.296;16.918;2022-11-21T05:58:55;49.28;;;28.55;;
48703;SDS011;34502;51.296;16.918;2022-11-21T06:01:22;58.33;;;30.23;;
48703;SDS011;34502;51.296;16.918;2022-11-21T06:04:08;54.95;;;29.70;;
48703;SDS011;34502;51.296;16.918;2022-11-21T06:06:34;53.03;;;29.98;;
48703;SDS011;34502;51.296;16.918;2022-11-21T06:09:01;55.70;;;30.50;;
48703;SDS011;34502;51.296;16.918;2022-11-21T06:11:27;52.45;;;28.70;;
48703;SDS011;34502;51.296;16.918;2022-11-21T06:13:53;55.80;;;28.02;;
48703;SDS011;34502;51.296;16.918;2022-11-21T06:16:19;53.30;;;28.45;;
48703;SDS011;34502;51.296;16.918;2022-11-21T06:18:46;51.35;;;28.48;;
48703;SDS011;34502;51.296;16.918;2022-11-21T06:21:15;51.47;;;28.27;;
48703;SDS011;34502;51.296;16.918;2022-11-21T06:23:43;50.67;;;27.30;;
48703;SDS011;34502;51.296;16.918;2022-11-21T06:26:14;52.67;;;30.15;;
48703;SDS011;34502;51.296;16.918;2022-11-21T06:28:41;50.03;;;27.90;;
48703;SDS011;34502;51.296;16.918;2022-11-21T06:31:10;53.15;;;29.45;;
48703;SDS011;34502;51.296;16.918;2022-11-21T06:33:37;52.05;;;29.33;;
48703;SDS011;34502;51.296;16.918;2022-11-21T06:36:05;54.40;;;31.38;;
48703;SDS011;34502;51.296;16.918;2022-11-21T06:38:33;48.97;;;28.08;;
48703;SDS011;34502;51.296;16.918;2022-11-21T06:41:05;46.38;;;27.02;;
48703;SDS011;34502;51.296;16.918;2022-11-21T06:43:36;53.17;;;29.63;;
48703;SDS011;34502;51.296;16.918;2022-11-21T06:46:02;51.25;;;27.23;;
48703;SDS011;34502;51.296;16.918;2022-11-21T06:48:29;54.67;;;30.02;;
48703;SDS011;34502;51.296;16.918;2022-11-21T06:50:56;53.10;;;28.45;;
48703;SDS011;34502;51.296;16.918;2022-11-21T06:53:22;55.40;;;30.15;;
48703;SDS011;34502;51.296;16.918;2022-11-21T06:55:48;55.17;;;30.08;;
48703;SDS011;34502;51.296;16.918;2022-11-21T06:58:15;54.42;;;29.65;;
48703;SDS011;34502;51.296;16.918;2022-11-21T07:00:41;51.08;;;29.10;;
48703;SDS011;34502;51.296;16.918;2022-11-21T07:03:08;53.00;;;29.90;;
48703;SDS011;34502;51.296;16.918;2022-11-21T07:05:34;56.45;;;29.75;;
48703;SDS011;34502;51.296;16.918;2022-11-21T07:08:00;58.03;;;31.92;;
48703;SDS011;34502;51.296;16.918;2022-11-21T07:10:27;53.33;;;29.63;;
48703;SDS011;34502;51.296;16.918;2022-11-21T07:12:57;57.10;;;30.45;;
48703;SDS011;34502;51.296;16.918;2022-11-21T07:15:42;61.88;;;32.45;;
48703;SDS011;34502;51.296;16.918;2022-11-21T07:18:09;61.53;;;31.90;;
48703;SDS011;34502;51.296;16.918;2022-11-21T07:20:35;58.67;;;31.42;;
48703;SDS011;34502;51.296;16.918;2022-11-21T07:23:02;59.72;;;30.65;;
48703;SDS011;34502;51.296;16.918;2022-11-21T07:25:28;56.60;;;29.75;;
48703;SDS011;34502;51.296;16.918;2022-11-21T07:27:57;54.30;;;31.00;;
48703;SDS011;34502;51.296;16.918;2022-11-21T07:30:24;59.30;;;32.33;;
48703;SDS011;34502;51.296;16.918;2022-11-21T07:32:54;61.85;;;33.10;;
48703;SDS011;34502;51.296;16.918;2022-11-21T07:35:21;63.53;;;32.90;;
48703;SDS011;34502;51.296;16.918;2022-11-21T07:37:47;58.40;;;31.35;;
48703;SDS011;34502;51.296;16.918;2022-11-21T07:40:13;60.42;;;33.08;;
48703;SDS011;34502;51.296;16.918;2022-11-21T07:42:39;61.28;;;32.65;;
48703;SDS011;34502;51.296;16.918;2022-11-21T07:45:05;56.92;;;31.00;;
48703;SDS011;34502;51.296;16.918;2022-11-21T07:47:32;53.45;;;31.98;;
48703;SDS011;34502;51.296;16.918;2022-11-21T07:49:58;56.08;;;31.13;;
48703;SDS011;34502;51.296;16.918;2022-11-21T07:52:24;52.03;;;29.92;;
48703;SDS011;34502;51.296;16.918;2022-11-21T07:54:50;51.22;;;29.02;;
48703;SDS011;34502;51.296;16.918;2022-11-21T07:57:17;54.38;;;28.92;;
48703;SDS011;34502;51.296;16.918;2022-11-21T07:59:43;54.92;;;30.30;;
48703;SDS011;34502;51.296;16.918;2022-11-21T08:02:27;51.30;;;29.38;;
48703;SDS011;34502;51.296;16.918;2022-11-21T08:04:54;53.58;;;28.15;;
48703;SDS011;34502;51.296;16.918;2022-11-21T08:07:20;54.08;;;31.15;;
48703;SDS011;34502;51.296;16.918;2022-11-21T08:09:48;54.72;;;32.83;;
48703;SDS011;34502;51.296;16.918;2022-11-21T08:12:14;49.97;;;32.13;;
48703;SDS011;34502;51.296;16.918;2022-11-21T08:14:40;72.15;;;44.67;;
48703;SDS011;34502;51.296;16.918;2022-11-21T08:17:06;63.97;;;36.58;;
48703;SDS011;34502;51.296;16.918;2022-11-21T08:19:33;59.95;;;33.95;;
48703;SDS011;34502;51.296;16.918;2022-11-21T14:07:28;58.28;;;32.55;;
48703;SDS011;34502;51.296;16.918;2022-11-21T14:09:56;62.85;;;32.70;;
48703;SDS011;34502;51.296;16.918;2022-11-21T14:17:49;51.03;;;29.52;;
48703;SDS011;34502;51.296;16.918;2022-11-21T14:23:03;64.88;;;35.13;;
48703;SDS011;34502;51.296;16.918;2022-11-21T14:28:10;53.17;;;30.23;;
48703;SDS011;34502;51.296;16.918;2022-11-21T14:30:42;59.10;;;31.98;;
48703;SDS011;34502;51.296;16.918;2022-11-21T14:35:58;78.15;;;40.83;;
48703;SDS011;34502;51.296;16.918;2022-11-21T14:38:25;83.15;;;43.88;;
48703;SDS011;34502;51.296;16.918;2022-11-21T14:43:42;65.00;;;34.15;;
48703;SDS011;34502;51.296;16.918;2022-11-21T14:46:15;65.03;;;34.47;;
48703;SDS011;34502;51.296;16.918;2022-11-21T14:48:45;68.32;;;35.78;;
48703;SDS011;34502;51.296;16.918;2022-11-21T14:51:13;60.58;;;34.33;;
48703;SDS011;34502;51.296;16.918;2022-11-21T14:53:41;58.78;;;34.13;;
48703;SDS011;34502;51.296;16.918;2022-11-21T14:56:18;68.22;;;36.70;;
48703;SDS011;34502;51.296;16.918;2022-11-21T14:58:45;65.22;;;35.20;;
48703;SDS011;34502;51.296;16.918;2022-11-21T15:01:18;65.13;;;36.58;;
48703;SDS011;34502;51.296;16.918;2022-11-21T15:03:57;69.22;;;37.40;;
48703;SDS011;34502;51.296;16.918;2022-11-21T15:06:27;71.15;;;38.75;;
48703;SDS011;34502;51.296;16.918;2022-11-21T15:08:58;63.60;;;33.80;;
48703;SDS011;34502;51.296;16.918;2022-11-21T15:14:04;62.25;;;35.00;;
48703;SDS011;34502;51.296;16.918;2022-11-21T15:16:35;58.72;;;33.60;;
48703;SDS011;34502;51.296;16.918;2022-11-21T15:19:07;55.10;;;32.55;;
48703;SDS011;34502;51.296;16.918;2022-11-21T15:21:33;47.10;;;27.83;;
48703;SDS011;34502;51.296;16.918;2022-11-21T15:24:14;57.00;;;30.73;;
48703;SDS011;34502;51.296;16.918;2022-11-21T15:26:53;53.55;;;30.42;;
48703;SDS011;34502;51.296;16.918;2022-11-21T15:29:20;56.60;;;30.23;;
48703;SDS011;34502;51.296;16.918;2022-11-21T15:32:05;51.55;;;29.52;;
48703;SDS011;34502;51.296;16.918;2022-11-21T15:34:36;44.90;;;26.77;;
48703;SDS011;34502;51.296;16.918;2022-11-21T15:37:13;47.35;;;27.38;;
48703;SDS011;34502;51.296;16.918;2022-11-21T15:39:41;49.97;;;26.80;;
48703;SDS011;34502;51.296;16.918;2022-11-21T15:45:00;57.28;;;27.75;;
48703;SDS011;34502;51.296;16.918;2022-11-21T15:47:26;48.22;;;26.15;;
48703;SDS011;34502;51.296;16.918;2022-11-21T15:49:53;68.88;;;37.75;;
48703;SDS011;34502;51.296;16.918;2022-11-21T15:52:19;64.65;;;33.50;;
48703;SDS011;34502;51.296;16.918;2022-11-21T15:54:45;70.70;;;37.70;;
48703;SDS011;34502;51.296;16.918;2022-11-21T15:57:12;69.97;;;36.25;;
48703;SDS011;34502;51.296;16.918;2022-11-21T15:59:39;81.55;;;37.22;;
48703;SDS011;34502;51.296;16.918;2022-11-21T16:02:05;68.82;;;33.20;;
48703;SDS011;34502;51.296;16.918;2022-11-21T16:04:34;67.65;;;32.05;;
48703;SDS011;34502;51.296;16.918;2022-11-21T16:07:00;56.00;;;29.63;;
48703;SDS011;34502;51.296;16.918;2022-11-21T16:09:26;58.50;;;29.15;;
48703;SDS011;34502;51.296;16.918;2022-11-21T16:11:53;55.85;;;29.50;;
48703;SDS011;34502;51.296;16.918;2022-11-21T16:14:19;49.35;;;27.05;;
48703;SDS011;34502;51.296;16.918;2022-11-21T16:16:45;55.80;;;31.40;;
48703;SDS011;34502;51.296;16.918;2022-11-21T16:19:12;58.33;;;31.83;;
48703;SDS011;34502;51.296;16.918;2022-11-21T16:21:39;66.05;;;35.33;;
48703;SDS011;34502;51.296;16.918;2022-11-21T16:24:05;60.58;;;33.08;;
48703;SDS011;34502;51.296;16.918;2022-11-21T16:26:31;76.63;;;38.00;;
48703;SDS011;34502;51.296;16.918;2022-11-21T16:28:58;71.40;;;34.50;;
48703;SDS011;34502;51.296;16.918;2022-11-21T16:31:26;56.15;;;30.80;;
48703;SDS011;34502;51.296;16.918;2022-11-21T16:33:53;70.15;;;38.67;;
48703;SDS011;34502;51.296;16.918;2022-11-21T16:36:20;71.05;;;38.50;;
48703;SDS011;34502;51.296;16.918;2022-11-21T16:38:49;56.45;;;30.90;;
48703;SDS011;34502;51.296;16.918;2022-11-21T16:41:15;52.13;;;29.25;;
48703;SDS011;34502;51.296;16.918;2022-11-21T16:43:46;49.63;;;28.33;;
48703;SDS011;34502;51.296;16.918;2022-11-21T16:46:13;70.93;;;38.50;;
48703;SDS011;34502;51.296;16.918;2022-11-21T16:48:40;85.85;;;43.70;;
48703;SDS011;34502;51.296;16.918;2022-11-21T16:51:13;73.57;;;33.90;;
48703;SDS011;34502;51.296;16.918;2022-11-21T16:53:41;67.78;;;31.10;;
48703;SDS011;34502;51.296;16.918;2022-11-21T16:56:07;53.30;;;27.75;;
48703;SDS011;34502;51.296;16.918;2022-11-21T16:58:35;55.78;;;28.70;;
48703;SDS011;34502;51.296;16.918;2022-11-21T17:01:17;57.53;;;28.60;;
48703;SDS011;34502;51.296;16.918;2022-11-21T17:03:45;46.03;;;25.70;;
48703;SDS011;34502;51.296;16.918;2022-11-21T17:06:15;45.22;;;23.13;;
48703;SDS011;34502;51.296;16.918;2022-11-21T17:08:42;41.28;;;22.15;;
48703;SDS011;34502;51.296;16.918;2022-11-21T17:13:45;38.85;;;21.98;;
48703;SDS011;34502;51.296;16.918;2022-11-21T17:16:13;36.85;;;20.33;;
48703;SDS011;34502;51.296;16.918;2022-11-21T17:18:40;37.65;;;20.83;;
48703;SDS011;34502;51.296;16.918;2022-11-21T17:21:07;47.25;;;24.98;;
48703;SDS011;34502;51.296;16.918;2022-11-21T17:23:36;75.20;;;34.85;;
48703;SDS011;34502;51.296;16.918;2022-11-21T17:26:04;94.68;;;44.47;;
48703;SDS011;34502;51.296;16.918;2022-11-21T17:28:35;87.70;;;39.63;;
48703;SDS011;34502;51.296;16.918;2022-11-21T17:31:19;75.97;;;37.05;;
48703;SDS011;34502;51.296;16.918;2022-11-21T17:33:46;57.17;;;28.90;;
48703;SDS011;34502;51.296;16.918;2022-11-21T17:36:16;57.38;;;28.92;;
48703;SDS011;34502;51.296;16.918;2022-11-21T17:38:44;47.28;;;23.85;;
48703;SDS011;34502;51.296;16.918;2022-11-21T17:41:12;44.40;;;24.63;;
48703;SDS011;34502;51.296;16.918;2022-11-21T17:43:40;54.15;;;28.40;;
48703;SDS011;34502;51.296;16.918;2022-11-21T17:46:08;58.38;;;30.60;;
48703;SDS011;34502;51.296;16.918;2022-11-21T17:48:37;50.50;;;26.60;;
48703;SDS011;34502;51.296;16.918;2022-11-21T17:51:06;41.97;;;24.13;;
48703;SDS011;34502;51.296;16.918;2022-11-21T17:53:37;53.95;;;26.15;;
48703;SDS011;34502;51.296;16.918;2022-11-21T17:56:05;61.92;;;31.17;;
48703;SDS011;34502;51.296;16.918;2022-11-21T17:58:33;74.68;;;37.10;;
48703;SDS011;34502;51.296;16.918;2022-11-21T18:01:00;67.57;;;37.15;;
48703;SDS011;34502;51.296;16.918;2022-11-21T18:03:28;71.78;;;37.92;;
48703;SDS011;34502;51.296;16.918;2022-11-21T18:08:28;66.30;;;34.60;;
48703;SDS011;34502;51.296;16.918;2022-11-21T18:10:59;70.28;;;37.38;;
48703;SDS011;34502;51.296;16.918;2022-11-21T18:13:26;79.90;;;39.22;;
48703;SDS011;34502;51.296;16.918;2022-11-21T18:15:53;55.03;;;30.15;;
48703;SDS011;34502;51.296;16.918;2022-11-21T18:18:19;58.63;;;29.92;;
48703;SDS011;34502;51.296;16.918;2022-11-21T18:20:46;86.60;;;42.42;;
48703;SDS011;34502;51.296;16.918;2022-11-21T18:23:12;66.50;;;33.88;;
48703;SDS011;34502;51.296;16.918;2022-11-21T18:25:39;51.92;;;27.27;;
48703;SDS011;34502;51.296;16.918;2022-11-21T18:28:05;92.15;;;43.90;;
48703;SDS011;34502;51.296;16.918;2022-11-21T18:30:31;78.00;;;38.25;;
48703;SDS011;34502;51.296;16.918;2022-11-21T18:32:57;57.97;;;28.75;;
48703;SDS011;34502;51.296;16.918;2022-11-21T18:35:24;42.10;;;22.95;;
48703;SDS011;34502;51.296;16.918;2022-11-21T18:37:51;47.63;;;23.60;;
48703;SDS011;34502;51.296;16.918;2022-11-21T18:40:17;63.47;;;31.63;;
48703;SDS011;34502;51.296;16.918;2022-11-21T18:42:43;95.90;;;43.40;;
48703;SDS011;34502;51.296;16.918;2022-11-21T18:45:09;66.40;;;31.83;;
48703;SDS011;34502;51.296;16.918;2022-11-21T18:47:35;71.63;;;35.17;;
48703;SDS011;34502;51.296;16.918;2022-11-21T18:50:02;57.60;;;31.77;;
48703;SDS011;34502;51.296;16.918;2022-11-21T18:52:28;59.38;;;33.67;;
48703;SDS011;34502;51.296;16.918;2022-11-21T18:54:57;68.90;;;37.33;;
48703;SDS011;34502;51.296;16.918;2022-11-21T18:57:23;70.68;;;38.17;;
48703;SDS011;34502;51.296;16.918;2022-11-21T18:59:49;91.78;;;45.80;;
48703;SDS011;34502;51.296;16.918;2022-11-21T19:02:16;59.10;;;31.80;;
48703;SDS011;34502;51.296;16.918;2022-11-21T19:04:42;66.97;;;37.80;;
48703;SDS011;34502;51.296;16.918;2022-11-21T19:07:08;72.50;;;38.20;;
48703;SDS011;34502;51.296;16.918;2022-11-21T19:09:35;80.68;;;42.15;;
48703;SDS011;34502;51.296;16.918;2022-11-21T19:12:01;67.70;;;36.28;;
48703;SDS011;34502;51.296;16.918;2022-11-21T19:14:27;62.72;;;32.92;;
48703;SDS011;34502;51.296;16.918;2022-11-21T19:16:53;69.43;;;38.13;;
48703;SDS011;34502;51.296;16.918;2022-11-21T19:19:20;70.43;;;38.95;;
48703;SDS011;34502;51.296;16.918;2022-11-21T19:21:46;70.35;;;38.30;;
48703;SDS011;34502;51.296;16.918;2022-11-21T19:24:12;69.00;;;36.85;;
48703;SDS011;34502;51.296;16.918;2022-11-21T19:26:43;64.88;;;34.90;;
48703;SDS011;34502;51.296;16.918;2022-11-21T19:29:11;59.67;;;32.88;;
48703;SDS011;34502;51.296;16.918;2022-11-21T19:31:37;58.08;;;33.15;;
48703;SDS011;34502;51.296;16.918;2022-11-21T19:34:03;62.50;;;33.58;;
48703;SDS011;34502;51.296;16.918;2022-11-21T19:36:29;65.93;;;36.97;;
48703;SDS011;34502;51.296;16.918;2022-11-21T19:38:57;56.78;;;32.90;;
48703;SDS011;34502;51.296;16.918;2022-11-21T19:41:24;55.60;;;32.35;;
48703;SDS011;34502;51.296;16.918;2022-11-21T19:43:55;57.95;;;33.05;;
48703;SDS011;34502;51.296;16.918;2022-11-21T19:46:26;57.90;;;31.38;;
48703;SDS011;34502;51.296;16.918;2022-11-21T19:51:22;59.15;;;32.30;;
48703;SDS011;34502;51.296;16.918;2022-11-21T19:53:50;64.30;;;36.13;;
48703;SDS011;34502;51.296;16.918;2022-11-21T19:56:17;65.85;;;36.78;;
48703;SDS011;34502;51.296;16.918;2022-11-21T19:58:48;73.38;;;40.22;;
48703;SDS011;34502;51.296;16.918;2022-11-21T20:01:20;81.72;;;44.25;;
48703;SDS011;34502;51.296;16.918;2022-11-21T20:03:49;92.35;;;52.58;;
48703;SDS011;34502;51.296;16.918;2022-11-21T20:06:24;104.00;;;56.97;;
48703;SDS011;34502;51.296;16.918;2022-11-21T20:08:53;93.18;;;53.70;;
48703;SDS011;34502;51.296;16.918;2022-11-21T20:11:20;112.28;;;64.35;;
48703;SDS011;34502;51.296;16.918;2022-11-21T20:13:48;101.43;;;57.35;;
48703;SDS011;34502;51.296;16.918;2022-11-21T20:16:19;92.97;;;53.60;;
48703;SDS011;34502;51.296;16.918;2022-11-21T20:18:49;84.35;;;49.97;;
48703;SDS011;34502;51.296;16.918;2022-11-21T20:21:16;88.53;;;48.10;;
48703;SDS011;34502;51.296;16.918;2022-11-21T20:23:46;83.65;;;44.15;;
48703;SDS011;34502;51.296;16.918;2022-11-21T20:26:12;82.43;;;46.53;;
48703;SDS011;34502;51.296;16.918;2022-11-21T20:28:39;75.65;;;42.20;;
48703;SDS011;34502;51.296;16.918;2022-11-21T20:31:15;75.45;;;42.20;;
48703;SDS011;34502;51.296;16.918;2022-11-21T20:33:46;80.63;;;42.70;;
48703;SDS011;34502;51.296;16.918;2022-11-21T20:36:17;72.68;;;39.30;;
48703;SDS011;34502;51.296;16.918;2022-11-21T20:41:22;57.70;;;31.10;;
48703;SDS011;34502;51.296;16.918;2022-11-21T20:44:00;57.75;;;32.50;;